sensor_id;sensor_type;location;lat;lon;timestamp;temperature;humidity
55329;DHT22;41205;44.264;19.884;2023-12-29T00:01:57;153.80;2252.80
55329;DHT22;41205;44.264;19.884;2023-12-29T00:04:28;154.00;2252.80
55329;DHT22;41205;44.264;19.884;2023-12-29T00:06:54;154.10;2252.80
55329;DHT22;41205;44.264;19.884;2023-12-29T00:09:20;154.10;2252.80
55329;DHT22;41205;44.264;19.884;2023-12-29T00:11:55;154.10;2252.80
55329;DHT22;41205;44.264;19.884;2023-12-29T00:14:21;154.20;2252.80
55329;DHT22;41205;44.264;19.884;2023-12-29T00:16:46;154.20;2252.80
55329;DHT22;41205;44.264;19.884;2023-12-29T00:19:12;154.10;2252.80
55329;DHT22;41205;44.264;19.884;2023-12-29T00:21:38;154.30;2252.80
55329;DHT22;41205;44.264;19.884;2023-12-29T00:24:04;154.30;2252.80
55329;DHT22;41205;44.264;19.884;2023-12-29T00:26:30;154.10;2252.80
55329;DHT22;41205;44.264;19.884;2023-12-29T00:28:56;153.90;2252.80
55329;DHT22;41205;44.264;19.884;2023-12-29T00:31:21;153.90;2252.80
55329;DHT22;41205;44.264;19.884;2023-12-29T00:33:48;154.00;2252.80
55329;DHT22;41205;44.264;19.884;2023-12-29T00:36:18;154.00;2252.80
55329;DHT22;41205;44.264;19.884;2023-12-29T00:38:44;154.10;2252.80
55329;DHT22;41205;44.264;19.884;2023-12-29T00:41:10;154.10;2252.80
55329;DHT22;41205;44.264;19.884;2023-12-29T00:43:35;154.10;2252.80
55329;DHT22;41205;44.264;19.884;2023-12-29T00:46:05;154.00;2252.80
55329;DHT22;41205;44.264;19.884;2023-12-29T00:48:31;154.00;2252.80
55329;DHT22;41205;44.264;19.884;2023-12-29T00:50:57;154.00;2252.80
55329;DHT22;41205;44.264;19.884;2023-12-29T00:53:23;154.00;2252.80
55329;DHT22;41205;44.264;19.884;2023-12-29T00:55:49;154.10;2252.80
55329;DHT22;41205;44.264;19.884;2023-12-29T00:58:15;154.10;2252.80
55329;DHT22;41205;44.264;19.884;2023-12-29T01:00:40;154.10;2252.80
55329;DHT22;41205;44.264;19.884;2023-12-29T01:03:06;154.10;2252.80
55329;DHT22;41205;44.264;19.884;2023-12-29T01:05:32;154.10;2252.80
55329;DHT22;41205;44.264;19.884;2023-12-29T01:07:57;154.10;2252.80
55329;DHT22;41205;44.264;19.884;2023-12-29T01:10:23;154.10;2252.80
55329;DHT22;41205;44.264;19.884;2023-12-29T01:12:49;154.10;2252.80
55329;DHT22;41205;44.264;19.884;2023-12-29T01:15:15;154.10;2252.80
55329;DHT22;41205;44.264;19.884;2023-12-29T01:17:41;154.10;2252.80
55329;DHT22;41205;44.264;19.884;2023-12-29T01:20:07;154.10;2252.80
55329;DHT22;41205;44.264;19.884;2023-12-29T01:22:33;154.10;2252.80
55329;DHT22;41205;44.264;19.884;2023-12-29T01:24:59;153.90;2252.80
55329;DHT22;41205;44.264;19.884;2023-12-29T01:27:26;128.90;2252.80
55329;DHT22;41205;44.264;19.884;2023-12-29T01:29:52;128.90;2252.80
55329;DHT22;41205;44.264;19.884;2023-12-29T01:32:21;128.80;2252.80
55329;DHT22;41205;44.264;19.884;2023-12-29T01:34:47;128.90;2252.80
55329;DHT22;41205;44.264;19.884;2023-12-29T01:37:13;153.70;2252.80
55329;DHT22;41205;44.264;19.884;2023-12-29T01:39:38;153.70;2252.80
55329;DHT22;41205;44.264;19.884;2023-12-29T01:42:06;153.80;2252.80
55329;DHT22;41205;44.264;19.884;2023-12-29T01:44:32;153.80;2252.80
55329;DHT22;41205;44.264;19.884;2023-12-29T01:47:01;153.70;2252.80
55329;DHT22;41205;44.264;19.884;2023-12-29T01:49:28;153.80;2252.80
55329;DHT22;41205;44.264;19.884;2023-12-29T01:51:57;153.80;2252.80
55329;DHT22;41205;44.264;19.884;2023-12-29T01:54:25;153.80;2252.80
55329;DHT22;41205;44.264;19.884;2023-12-29T01:56:54;153.80;2252.80
55329;DHT22;41205;44.264;19.884;2023-12-29T01:59:22;128.80;2252.80
55329;DHT22;41205;44.264;19.884;2023-12-29T02:01:49;128.60;2252.80
55329;DHT22;41205;44.264;19.884;2023-12-29T02:04:15;128.70;2252.80
55329;DHT22;41205;44.264;19.884;2023-12-29T02:06:42;128.80;2252.80
55329;DHT22;41205;44.264;19.884;2023-12-29T02:09:08;128.90;2252.80
55329;DHT22;41205;44.264;19.884;2023-12-29T02:11:34;128.90;2252.80
55329;DHT22;41205;44.264;19.884;2023-12-29T02:14:00;128.80;2252.80
55329;DHT22;41205;44.264;19.884;2023-12-29T02:19:43;128.70;2252.80
55329;DHT22;41205;44.264;19.884;2023-12-29T02:22:10;128.80;2252.80
55329;DHT22;41205;44.264;19.884;2023-12-29T02:24:37;128.90;2252.80
55329;DHT22;41205;44.264;19.884;2023-12-29T02:30:01;153.70;2252.80
55329;DHT22;41205;44.264;19.884;2023-12-29T02:32:28;153.70;2252.80
55329;DHT22;41205;44.264;19.884;2023-12-29T02:34:56;153.60;2252.80
55329;DHT22;41205;44.264;19.884;2023-12-29T02:37:23;128.90;2252.80
55329;DHT22;41205;44.264;19.884;2023-12-29T02:39:50;128.90;2252.80
55329;DHT22;41205;44.264;19.884;2023-12-29T02:42:15;128.90;2252.80
55329;DHT22;41205;44.264;19.884;2023-12-29T02:44:41;128.80;2252.80
55329;DHT22;41205;44.264;19.884;2023-12-29T02:47:07;128.70;2252.80
55329;DHT22;41205;44.264;19.884;2023-12-29T02:49:33;128.50;2252.80
55329;DHT22;41205;44.264;19.884;2023-12-29T02:51:59;128.00;2252.80
55329;DHT22;41205;44.264;19.884;2023-12-29T02:54:24;128.10;2252.80
55329;DHT22;41205;44.264;19.884;2023-12-29T02:56:50;128.40;2252.80
55329;DHT22;41205;44.264;19.884;2023-12-29T02:59:16;128.40;2252.80
55329;DHT22;41205;44.264;19.884;2023-12-29T03:01:41;128.40;2252.80
55329;DHT22;41205;44.264;19.884;2023-12-29T03:04:07;128.40;2252.80
55329;DHT22;41205;44.264;19.884;2023-12-29T03:06:33;128.40;2252.80
55329;DHT22;41205;44.264;19.884;2023-12-29T03:08:59;128.50;2252.80
55329;DHT22;41205;44.264;19.884;2023-12-29T03:11:24;128.60;2252.80
55329;DHT22;41205;44.264;19.884;2023-12-29T03:13:50;128.60;2252.80
55329;DHT22;41205;44.264;19.884;2023-12-29T03:16:16;128.60;2252.80
55329;DHT22;41205;44.264;19.884;2023-12-29T03:18:42;128.70;2252.80
55329;DHT22;41205;44.264;19.884;2023-12-29T03:21:07;128.60;2252.80
55329;DHT22;41205;44.264;19.884;2023-12-29T03:23:33;128.50;2252.80
55329;DHT22;41205;44.264;19.884;2023-12-29T03:25:59;128.60;2252.80
55329;DHT22;41205;44.264;19.884;2023-12-29T03:28:25;128.50;2252.80
55329;DHT22;41205;44.264;19.884;2023-12-29T03:30:51;128.40;2252.80
55329;DHT22;41205;44.264;19.884;2023-12-29T03:33:17;128.30;2252.80
55329;DHT22;41205;44.264;19.884;2023-12-29T03:35:42;128.30;2252.80
55329;DHT22;41205;44.264;19.884;2023-12-29T03:38:08;128.40;2252.80
55329;DHT22;41205;44.264;19.884;2023-12-29T03:40:34;128.30;2252.80
55329;DHT22;41205;44.264;19.884;2023-12-29T03:43:00;128.30;2252.80
55329;DHT22;41205;44.264;19.884;2023-12-29T03:45:25;128.20;2252.80
55329;DHT22;41205;44.264;19.884;2023-12-29T03:47:51;128.20;2252.80
55329;DHT22;41205;44.264;19.884;2023-12-29T03:50:17;128.30;2252.80
55329;DHT22;41205;44.264;19.884;2023-12-29T03:52:42;128.30;2252.80
55329;DHT22;41205;44.264;19.884;2023-12-29T03:55:08;128.30;2252.80
55329;DHT22;41205;44.264;19.884;2023-12-29T03:57:34;128.20;2252.80
55329;DHT22;41205;44.264;19.884;2023-12-29T03:59:59;128.20;2252.80
55329;DHT22;41205;44.264;19.884;2023-12-29T04:02:25;128.20;2252.80
55329;DHT22;41205;44.264;19.884;2023-12-29T04:04:51;128.20;2252.80
55329;DHT22;41205;44.264;19.884;2023-12-29T04:07:17;128.20;2252.80
55329;DHT22;41205;44.264;19.884;2023-12-29T04:09:43;128.20;2252.80
55329;DHT22;41205;44.264;19.884;2023-12-29T04:12:09;128.20;2252.80
55329;DHT22;41205;44.264;19.884;2023-12-29T04:14:34;128.30;2252.80
55329;DHT22;41205;44.264;19.884;2023-12-29T04:17:00;128.30;2252.80
55329;DHT22;41205;44.264;19.884;2023-12-29T04:19:29;128.30;2252.80
55329;DHT22;41205;44.264;19.884;2023-12-29T04:21:54;128.40;2252.80
55329;DHT22;41205;44.264;19.884;2023-12-29T04:24:20;128.40;2252.80
55329;DHT22;41205;44.264;19.884;2023-12-29T04:26:46;128.50;2252.80
55329;DHT22;41205;44.264;19.884;2023-12-29T04:29:11;128.50;2252.80
55329;DHT22;41205;44.264;19.884;2023-12-29T04:31:37;128.50;2252.80
55329;DHT22;41205;44.264;19.884;2023-12-29T04:34:03;128.40;2252.80
55329;DHT22;41205;44.264;19.884;2023-12-29T04:36:29;128.40;2252.80
55329;DHT22;41205;44.264;19.884;2023-12-29T04:38:54;128.30;2252.80
55329;DHT22;41205;44.264;19.884;2023-12-29T04:41:20;128.20;2252.80
55329;DHT22;41205;44.264;19.884;2023-12-29T04:43:46;128.30;2252.80
55329;DHT22;41205;44.264;19.884;2023-12-29T04:46:11;128.20;2252.80
55329;DHT22;41205;44.264;19.884;2023-12-29T04:48:37;128.10;2252.80
55329;DHT22;41205;44.264;19.884;2023-12-29T04:51:03;103.30;2227.20
55329;DHT22;41205;44.264;19.884;2023-12-29T04:53:29;103.20;2227.20
55329;DHT22;41205;44.264;19.884;2023-12-29T04:55:54;103.20;2227.20
55329;DHT22;41205;44.264;19.884;2023-12-29T04:58:20;103.20;2227.20
55329;DHT22;41205;44.264;19.884;2023-12-29T05:00:46;103.20;2227.20
55329;DHT22;41205;44.264;19.884;2023-12-29T05:03:12;103.20;2227.20
55329;DHT22;41205;44.264;19.884;2023-12-29T05:05:37;103.10;2227.20
55329;DHT22;41205;44.264;19.884;2023-12-29T05:08:04;103.10;2227.20
55329;DHT22;41205;44.264;19.884;2023-12-29T05:10:29;103.20;2227.20
55329;DHT22;41205;44.264;19.884;2023-12-29T05:12:55;103.30;2227.20
55329;DHT22;41205;44.264;19.884;2023-12-29T05:15:21;103.30;2227.20
55329;DHT22;41205;44.264;19.884;2023-12-29T05:17:47;103.30;2227.20
55329;DHT22;41205;44.264;19.884;2023-12-29T05:20:12;128.00;2252.80
55329;DHT22;41205;44.264;19.884;2023-12-29T05:22:38;128.00;2252.80
55329;DHT22;41205;44.264;19.884;2023-12-29T05:25:04;103.30;2227.20
55329;DHT22;41205;44.264;19.884;2023-12-29T05:27:30;128.00;2252.80
55329;DHT22;41205;44.264;19.884;2023-12-29T05:29:57;128.00;2252.80
55329;DHT22;41205;44.264;19.884;2023-12-29T05:32:22;103.30;2227.20
55329;DHT22;41205;44.264;19.884;2023-12-29T05:34:48;103.30;2227.20
55329;DHT22;41205;44.264;19.884;2023-12-29T05:37:14;103.30;2227.20
55329;DHT22;41205;44.264;19.884;2023-12-29T05:39:43;128.00;2252.80
55329;DHT22;41205;44.264;19.884;2023-12-29T05:42:08;128.00;2252.80
55329;DHT22;41205;44.264;19.884;2023-12-29T05:44:37;128.00;2252.80
55329;DHT22;41205;44.264;19.884;2023-12-29T05:47:04;103.30;2227.20
55329;DHT22;41205;44.264;19.884;2023-12-29T05:49:30;103.30;2227.20
55329;DHT22;41205;44.264;19.884;2023-12-29T05:51:57;128.00;2252.80
55329;DHT22;41205;44.264;19.884;2023-12-29T05:54:23;128.10;2252.80
55329;DHT22;41205;44.264;19.884;2023-12-29T05:56:50;128.10;2252.80
55329;DHT22;41205;44.264;19.884;2023-12-29T05:59:16;128.20;2252.80
55329;DHT22;41205;44.264;19.884;2023-12-29T06:01:41;128.40;2252.80
55329;DHT22;41205;44.264;19.884;2023-12-29T06:04:07;128.40;2252.80
55329;DHT22;41205;44.264;19.884;2023-12-29T06:06:33;128.40;2252.80
55329;DHT22;41205;44.264;19.884;2023-12-29T06:08:58;128.40;2252.80
55329;DHT22;41205;44.264;19.884;2023-12-29T06:11:24;128.50;2252.80
55329;DHT22;41205;44.264;19.884;2023-12-29T06:13:50;128.50;2252.80
55329;DHT22;41205;44.264;19.884;2023-12-29T06:16:22;128.50;2252.80
55329;DHT22;41205;44.264;19.884;2023-12-29T06:18:48;128.50;2252.80
55329;DHT22;41205;44.264;19.884;2023-12-29T06:21:14;128.40;2252.80
55329;DHT22;41205;44.264;19.884;2023-12-29T06:23:40;128.40;2252.80
55329;DHT22;41205;44.264;19.884;2023-12-29T06:26:17;128.40;2252.80
55329;DHT22;41205;44.264;19.884;2023-12-29T06:28:47;128.40;2252.80
55329;DHT22;41205;44.264;19.884;2023-12-29T06:31:13;128.40;2252.80
55329;DHT22;41205;44.264;19.884;2023-12-29T06:33:42;128.30;2252.80
55329;DHT22;41205;44.264;19.884;2023-12-29T06:36:09;128.20;2252.80
55329;DHT22;41205;44.264;19.884;2023-12-29T06:38:35;128.30;2252.80
55329;DHT22;41205;44.264;19.884;2023-12-29T06:41:02;128.30;2252.80
55329;DHT22;41205;44.264;19.884;2023-12-29T06:43:29;128.30;2252.80
55329;DHT22;41205;44.264;19.884;2023-12-29T06:45:55;128.40;2252.80
55329;DHT22;41205;44.264;19.884;2023-12-29T06:48:21;128.50;2252.80
55329;DHT22;41205;44.264;19.884;2023-12-29T06:50:47;128.70;2252.80
55329;DHT22;41205;44.264;19.884;2023-12-29T06:53:13;128.80;2252.80
55329;DHT22;41205;44.264;19.884;2023-12-29T06:55:40;128.80;2252.80
55329;DHT22;41205;44.264;19.884;2023-12-29T06:58:07;128.90;2252.80
55329;DHT22;41205;44.264;19.884;2023-12-29T07:00:33;128.90;2252.80
55329;DHT22;41205;44.264;19.884;2023-12-29T07:03:00;128.90;2252.80
55329;DHT22;41205;44.264;19.884;2023-12-29T07:05:26;153.60;2252.80
55329;DHT22;41205;44.264;19.884;2023-12-29T07:07:52;153.90;2252.80
55329;DHT22;41205;44.264;19.884;2023-12-29T07:10:18;154.10;2252.80
55329;DHT22;41205;44.264;19.884;2023-12-29T07:12:44;154.10;2252.80
55329;DHT22;41205;44.264;19.884;2023-12-29T07:15:10;154.20;2252.80
55329;DHT22;41205;44.264;19.884;2023-12-29T07:17:36;154.20;2252.80
55329;DHT22;41205;44.264;19.884;2023-12-29T07:20:01;154.20;2252.80
55329;DHT22;41205;44.264;19.884;2023-12-29T07:22:27;154.20;2252.80
55329;DHT22;41205;44.264;19.884;2023-12-29T07:24:53;154.20;2252.80
55329;DHT22;41205;44.264;19.884;2023-12-29T07:27:19;154.30;2252.80
55329;DHT22;41205;44.264;19.884;2023-12-29T07:29:44;154.20;2252.80
55329;DHT22;41205;44.264;19.884;2023-12-29T07:32:10;154.20;2252.80
55329;DHT22;41205;44.264;19.884;2023-12-29T07:34:36;154.20;2252.80
55329;DHT22;41205;44.264;19.884;2023-12-29T07:37:02;154.20;2252.80
55329;DHT22;41205;44.264;19.884;2023-12-29T07:39:28;154.10;2252.80
55329;DHT22;41205;44.264;19.884;2023-12-29T07:41:53;154.30;2252.80
55329;DHT22;41205;44.264;19.884;2023-12-29T07:44:19;154.30;2252.80
55329;DHT22;41205;44.264;19.884;2023-12-29T07:46:45;179.30;2252.80
55329;DHT22;41205;44.264;19.884;2023-12-29T07:49:11;179.50;2252.80
55329;DHT22;41205;44.264;19.884;2023-12-29T07:51:46;179.70;2252.80
55329;DHT22;41205;44.264;19.884;2023-12-29T07:54:12;179.80;2252.80
55329;DHT22;41205;44.264;19.884;2023-12-29T07:56:37;179.90;2252.80
55329;DHT22;41205;44.264;19.884;2023-12-29T07:59:04;179.90;2252.80
55329;DHT22;41205;44.264;19.884;2023-12-29T08:01:30;179.80;2252.80
55329;DHT22;41205;44.264;19.884;2023-12-29T08:03:56;179.60;2252.80
55329;DHT22;41205;44.264;19.884;2023-12-29T08:06:22;179.80;2252.80
55329;DHT22;41205;44.264;19.884;2023-12-29T08:08:48;180.10;2252.80
55329;DHT22;41205;44.264;19.884;2023-12-29T08:11:17;204.80;2252.80
55329;DHT22;41205;44.264;19.884;2023-12-29T08:13:44;204.90;2252.80
55329;DHT22;41205;44.264;19.884;2023-12-29T08:16:11;205.00;2252.80
55329;DHT22;41205;44.264;19.884;2023-12-29T08:18:36;205.10;2252.80
55329;DHT22;41205;44.264;19.884;2023-12-29T08:21:02;205.00;2252.80
55329;DHT22;41205;44.264;19.884;2023-12-29T08:23:28;205.20;2252.80
55329;DHT22;41205;44.264;19.884;2023-12-29T08:25:56;205.40;2252.80
55329;DHT22;41205;44.264;19.884;2023-12-29T08:28:22;230.60;2252.80
55329;DHT22;41205;44.264;19.884;2023-12-29T08:30:48;231.10;2252.80
55329;DHT22;41205;44.264;19.884;2023-12-29T08:33:14;231.20;2252.80
55329;DHT22;41205;44.264;19.884;2023-12-29T08:35:41;231.10;2252.80
55329;DHT22;41205;44.264;19.884;2023-12-29T08:38:06;231.00;2252.80
55329;DHT22;41205;44.264;19.884;2023-12-29T08:40:32;230.90;2252.80
55329;DHT22;41205;44.264;19.884;2023-12-29T08:42:58;231.00;2252.80
55329;DHT22;41205;44.264;19.884;2023-12-29T08:45:24;256.20;2252.80
55329;DHT22;41205;44.264;19.884;2023-12-29T08:47:50;282.30;2278.40
55329;DHT22;41205;44.264;19.884;2023-12-29T08:50:15;332.90;2329.60
55329;DHT22;41205;44.264;19.884;2023-12-29T08:52:42;358.80;2329.60
55329;DHT22;41205;44.264;19.884;2023-12-29T08:55:08;384.10;2329.60
55329;DHT22;41205;44.264;19.884;2023-12-29T08:57:35;384.40;2278.40
55329;DHT22;41205;44.264;19.884;2023-12-29T09:00:01;409.70;2252.80
55329;DHT22;41205;44.264;19.884;2023-12-29T09:02:27;384.90;2227.20
55329;DHT22;41205;44.264;19.884;2023-12-29T09:04:52;410.00;2201.60
55329;DHT22;41205;44.264;19.884;2023-12-29T09:07:18;410.00;2227.20
55329;DHT22;41205;44.264;19.884;2023-12-29T09:09:44;435.50;2124.80
55329;DHT22;41205;44.264;19.884;2023-12-29T09:12:10;435.80;2099.20
55329;DHT22;41205;44.264;19.884;2023-12-29T09:14:35;435.80;2073.60
55329;DHT22;41205;44.264;19.884;2023-12-29T09:17:01;435.80;2073.60
55329;DHT22;41205;44.264;19.884;2023-12-29T09:19:27;436.00;2048.00
55329;DHT22;41205;44.264;19.884;2023-12-29T09:21:53;436.10;2073.60
55329;DHT22;41205;44.264;19.884;2023-12-29T09:24:19;435.90;2048.00
55329;DHT22;41205;44.264;19.884;2023-12-29T09:26:44;435.30;2099.20
55329;DHT22;41205;44.264;19.884;2023-12-29T09:29:10;409.80;2176.00
55329;DHT22;41205;44.264;19.884;2023-12-29T09:31:36;384.60;2201.60
55329;DHT22;41205;44.264;19.884;2023-12-29T09:34:02;384.10;2252.80
55329;DHT22;41205;44.264;19.884;2023-12-29T09:36:28;358.80;2329.60
55329;DHT22;41205;44.264;19.884;2023-12-29T09:38:53;358.50;2329.60
55329;DHT22;41205;44.264;19.884;2023-12-29T09:41:20;333.70;2329.60
55329;DHT22;41205;44.264;19.884;2023-12-29T09:43:49;333.40;2329.60
55329;DHT22;41205;44.264;19.884;2023-12-29T09:46:17;333.00;2329.60
55329;DHT22;41205;44.264;19.884;2023-12-29T09:48:46;308.10;2304.00
55329;DHT22;41205;44.264;19.884;2023-12-29T09:51:15;308.00;2304.00
55329;DHT22;41205;44.264;19.884;2023-12-29T09:53:41;307.80;2304.00
55329;DHT22;41205;44.264;19.884;2023-12-29T09:56:08;307.70;2304.00
55329;DHT22;41205;44.264;19.884;2023-12-29T09:58:35;307.70;2304.00
55329;DHT22;41205;44.264;19.884;2023-12-29T10:01:03;307.80;2304.00
55329;DHT22;41205;44.264;19.884;2023-12-29T10:03:30;307.80;2304.00
55329;DHT22;41205;44.264;19.884;2023-12-29T10:06:03;308.00;2304.00
55329;DHT22;41205;44.264;19.884;2023-12-29T10:08:34;308.10;2304.00
55329;DHT22;41205;44.264;19.884;2023-12-29T10:11:01;332.80;2329.60
55329;DHT22;41205;44.264;19.884;2023-12-29T10:13:29;332.90;2329.60
55329;DHT22;41205;44.264;19.884;2023-12-29T10:16:28;332.90;2329.60
55329;DHT22;41205;44.264;19.884;2023-12-29T10:21:43;333.10;2329.60
55329;DHT22;41205;44.264;19.884;2023-12-29T10:24:21;333.20;2329.60
55329;DHT22;41205;44.264;19.884;2023-12-29T10:26:48;333.20;2329.60
55329;DHT22;41205;44.264;19.884;2023-12-29T10:29:15;333.40;2329.60
55329;DHT22;41205;44.264;19.884;2023-12-29T10:31:41;333.40;2329.60
55329;DHT22;41205;44.264;19.884;2023-12-29T10:34:36;333.40;2329.60
55329;DHT22;41205;44.264;19.884;2023-12-29T10:37:02;333.50;2329.60
55329;DHT22;41205;44.264;19.884;2023-12-29T10:39:29;333.40;2329.60
55329;DHT22;41205;44.264;19.884;2023-12-29T10:42:06;333.60;2329.60
55329;DHT22;41205;44.264;19.884;2023-12-29T10:44:34;333.60;2329.60
55329;DHT22;41205;44.264;19.884;2023-12-29T10:47:08;333.70;2329.60
55329;DHT22;41205;44.264;19.884;2023-12-29T10:49:35;358.40;2329.60
55329;DHT22;41205;44.264;19.884;2023-12-29T10:52:14;358.40;2329.60
55329;DHT22;41205;44.264;19.884;2023-12-29T10:54:43;358.50;2329.60
55329;DHT22;41205;44.264;19.884;2023-12-29T10:57:12;358.50;2329.60
55329;DHT22;41205;44.264;19.884;2023-12-29T10:59:39;358.60;2329.60
55329;DHT22;41205;44.264;19.884;2023-12-29T11:02:05;358.70;2329.60
55329;DHT22;41205;44.264;19.884;2023-12-29T11:04:30;358.80;2304.00
55329;DHT22;41205;44.264;19.884;2023-12-29T11:06:56;358.80;2304.00
55329;DHT22;41205;44.264;19.884;2023-12-29T11:09:32;358.80;2278.40
55329;DHT22;41205;44.264;19.884;2023-12-29T11:12:03;358.90;2252.80
55329;DHT22;41205;44.264;19.884;2023-12-29T11:14:30;358.90;2252.80
55329;DHT22;41205;44.264;19.884;2023-12-29T11:16:56;358.90;2227.20
55329;DHT22;41205;44.264;19.884;2023-12-29T11:19:23;358.80;2227.20
55329;DHT22;41205;44.264;19.884;2023-12-29T11:21:56;358.90;2227.20
55329;DHT22;41205;44.264;19.884;2023-12-29T11:24:22;358.80;2227.20
55329;DHT22;41205;44.264;19.884;2023-12-29T11:26:49;358.90;2201.60
55329;DHT22;41205;44.264;19.884;2023-12-29T11:29:16;358.90;2176.00
55329;DHT22;41205;44.264;19.884;2023-12-29T11:31:43;359.00;2201.60
55329;DHT22;41205;44.264;19.884;2023-12-29T11:34:33;359.00;2201.60
55329;DHT22;41205;44.264;19.884;2023-12-29T11:40:18;359.10;2150.40
55329;DHT22;41205;44.264;19.884;2023-12-29T11:42:47;359.10;2150.40
55329;DHT22;41205;44.264;19.884;2023-12-29T11:45:31;359.10;2150.40
55329;DHT22;41205;44.264;19.884;2023-12-29T11:47:59;359.10;2124.80
55329;DHT22;41205;44.264;19.884;2023-12-29T11:50:35;359.10;2124.80
55329;DHT22;41205;44.264;19.884;2023-12-29T11:53:02;359.10;2124.80
55329;DHT22;41205;44.264;19.884;2023-12-29T11:55:38;359.20;2124.80
55329;DHT22;41205;44.264;19.884;2023-12-29T11:58:23;359.20;2099.20
55329;DHT22;41205;44.264;19.884;2023-12-29T12:00:48;359.30;2124.80
55329;DHT22;41205;44.264;19.884;2023-12-29T12:03:25;359.20;2099.20
55329;DHT22;41205;44.264;19.884;2023-12-29T12:05:52;359.20;2099.20
55329;DHT22;41205;44.264;19.884;2023-12-29T12:08:36;359.30;2124.80
55329;DHT22;41205;44.264;19.884;2023-12-29T12:13:55;359.20;2124.80
55329;DHT22;41205;44.264;19.884;2023-12-29T12:19:10;359.30;2099.20
55329;DHT22;41205;44.264;19.884;2023-12-29T12:21:37;359.30;2099.20
55329;DHT22;41205;44.264;19.884;2023-12-29T12:24:06;359.30;2073.60
55329;DHT22;41205;44.264;19.884;2023-12-29T12:26:33;384.00;2073.60
55329;DHT22;41205;44.264;19.884;2023-12-29T12:28:59;384.00;2048.00
55329;DHT22;41205;44.264;19.884;2023-12-29T12:31:25;384.10;2073.60
55329;DHT22;41205;44.264;19.884;2023-12-29T12:33:55;384.10;2073.60
55329;DHT22;41205;44.264;19.884;2023-12-29T12:36:22;384.30;2048.00
55329;DHT22;41205;44.264;19.884;2023-12-29T12:38:56;384.40;2048.00
55329;DHT22;41205;44.264;19.884;2023-12-29T12:41:23;384.40;1996.80
55329;DHT22;41205;44.264;19.884;2023-12-29T12:44:13;384.50;1996.80
55329;DHT22;41205;44.264;19.884;2023-12-29T12:49:08;384.60;2022.40
55329;DHT22;41205;44.264;19.884;2023-12-29T12:51:33;384.60;1996.80
55329;DHT22;41205;44.264;19.884;2023-12-29T12:53:59;384.60;1971.20
55329;DHT22;41205;44.264;19.884;2023-12-29T12:56:26;384.60;1996.80
55329;DHT22;41205;44.264;19.884;2023-12-29T12:58:57;384.60;1996.80
55329;DHT22;41205;44.264;19.884;2023-12-29T13:01:24;384.50;1996.80
55329;DHT22;41205;44.264;19.884;2023-12-29T13:03:50;384.40;1996.80
55329;DHT22;41205;44.264;19.884;2023-12-29T13:06:16;384.40;1996.80
55329;DHT22;41205;44.264;19.884;2023-12-29T13:08:43;384.50;1996.80
55329;DHT22;41205;44.264;19.884;2023-12-29T13:11:10;384.50;1996.80
55329;DHT22;41205;44.264;19.884;2023-12-29T13:13:39;384.50;1996.80
55329;DHT22;41205;44.264;19.884;2023-12-29T13:16:05;384.50;1971.20
55329;DHT22;41205;44.264;19.884;2023-12-29T13:18:33;384.50;1996.80
55329;DHT22;41205;44.264;19.884;2023-12-29T13:21:00;384.60;1945.60
55329;DHT22;41205;44.264;19.884;2023-12-29T13:23:27;384.70;1945.60
55329;DHT22;41205;44.264;19.884;2023-12-29T13:25:59;384.80;1945.60
55329;DHT22;41205;44.264;19.884;2023-12-29T13:28:27;384.90;1945.60
55329;DHT22;41205;44.264;19.884;2023-12-29T13:30:54;384.80;1945.60
55329;DHT22;41205;44.264;19.884;2023-12-29T13:33:33;384.70;1945.60
55329;DHT22;41205;44.264;19.884;2023-12-29T13:36:18;384.70;1920.00
55329;DHT22;41205;44.264;19.884;2023-12-29T13:38:53;384.60;1920.00
55329;DHT22;41205;44.264;19.884;2023-12-29T13:41:20;384.50;1971.20
55329;DHT22;41205;44.264;19.884;2023-12-29T13:43:48;384.40;1971.20
55329;DHT22;41205;44.264;19.884;2023-12-29T13:46:16;384.40;1971.20
55329;DHT22;41205;44.264;19.884;2023-12-29T13:48:43;384.30;1971.20
55329;DHT22;41205;44.264;19.884;2023-12-29T13:51:11;384.30;1971.20
55329;DHT22;41205;44.264;19.884;2023-12-29T13:53:37;384.30;1945.60
55329;DHT22;41205;44.264;19.884;2023-12-29T13:56:10;384.30;1996.80
55329;DHT22;41205;44.264;19.884;2023-12-29T13:58:36;384.30;1971.20
55329;DHT22;41205;44.264;19.884;2023-12-29T14:01:06;384.30;1945.60
55329;DHT22;41205;44.264;19.884;2023-12-29T14:03:58;384.10;1996.80
55329;DHT22;41205;44.264;19.884;2023-12-29T14:06:36;359.30;1996.80
55329;DHT22;41205;44.264;19.884;2023-12-29T14:09:03;359.10;1996.80
55329;DHT22;41205;44.264;19.884;2023-12-29T14:11:29;359.00;2022.40
55329;DHT22;41205;44.264;19.884;2023-12-29T14:13:56;358.90;2022.40
55329;DHT22;41205;44.264;19.884;2023-12-29T14:16:22;358.80;2022.40
55329;DHT22;41205;44.264;19.884;2023-12-29T14:18:55;358.80;2048.00
55329;DHT22;41205;44.264;19.884;2023-12-29T14:21:27;358.80;2048.00
55329;DHT22;41205;44.264;19.884;2023-12-29T14:24:09;358.80;2048.00
55329;DHT22;41205;44.264;19.884;2023-12-29T14:26:39;358.80;2048.00
55329;DHT22;41205;44.264;19.884;2023-12-29T14:29:14;358.80;2048.00
55329;DHT22;41205;44.264;19.884;2023-12-29T14:31:42;358.70;2048.00
55329;DHT22;41205;44.264;19.884;2023-12-29T14:34:09;358.70;2048.00
55329;DHT22;41205;44.264;19.884;2023-12-29T14:36:37;358.70;2048.00
55329;DHT22;41205;44.264;19.884;2023-12-29T14:39:03;358.70;2073.60
55329;DHT22;41205;44.264;19.884;2023-12-29T14:41:29;358.70;2073.60
55329;DHT22;41205;44.264;19.884;2023-12-29T14:43:56;358.60;2099.20
55329;DHT22;41205;44.264;19.884;2023-12-29T14:46:22;358.60;2073.60
55329;DHT22;41205;44.264;19.884;2023-12-29T14:48:47;358.50;2099.20
55329;DHT22;41205;44.264;19.884;2023-12-29T14:51:14;358.50;2124.80
55329;DHT22;41205;44.264;19.884;2023-12-29T14:53:42;358.40;2124.80
55329;DHT22;41205;44.264;19.884;2023-12-29T14:56:08;358.40;2124.80
55329;DHT22;41205;44.264;19.884;2023-12-29T14:58:34;358.40;2099.20